createdAt,value
2022-08-26T00:00:12.731Z,73.05
2022-08-26T00:01:12.699Z,73.05
2022-08-26T00:02:12.894Z,73.05
2022-08-26T00:03:12.684Z,72.95
2022-08-26T00:04:12.753Z,72.85
2022-08-26T00:05:12.673Z,73.05
2022-08-26T00:06:12.663Z,73.15
2022-08-26T00:07:12.634Z,73.25
2022-08-26T00:08:13.062Z,73.39
2022-08-26T00:09:12.614Z,73.49
2022-08-26T00:10:12.635Z,73.39
2022-08-26T00:11:12.605Z,73.28
2022-08-26T00:12:12.674Z,73.19
2022-08-26T00:13:13.265Z,73.19
2022-08-26T00:14:12.565Z,73.09
2022-08-26T00:15:12.564Z,73.49
2022-08-26T00:16:12.599Z,73.49
2022-08-26T00:17:12.555Z,73.49
2022-08-26T00:18:22.394Z,73.69
2022-08-26T00:19:13.529Z,73.58
2022-08-26T00:20:12.507Z,73.69
2022-08-26T00:21:12.486Z,73.79
2022-08-26T00:22:12.489Z,73.99
2022-08-26T00:23:13.487Z,74.08
2022-08-26T00:24:12.461Z,74.29
2022-08-26T00:25:12.447Z,74.29
2022-08-26T00:26:12.442Z,74.29
2022-08-26T00:27:12.449Z,74.42
2022-08-26T00:28:12.428Z,74.32
2022-08-26T00:29:12.524Z,74.62
2022-08-26T00:30:12.388Z,74.82
2022-08-26T00:31:12.382Z,74.82
2022-08-26T00:32:12.369Z,74.82
2022-08-26T00:33:12.382Z,74.92
2022-08-26T00:34:12.357Z,74.82
2022-08-26T00:35:12.342Z,74.82
2022-08-26T00:36:14.429Z,74.85
2022-08-26T00:37:16.159Z,74.72
2022-08-26T00:38:12.303Z,74.72
2022-08-26T00:39:12.304Z,74.66
2022-08-26T00:40:12.396Z,75.02
2022-08-26T00:41:12.274Z,75.26
2022-08-26T00:42:12.273Z,75.26
2022-08-26T00:43:12.264Z,75.26
2022-08-26T00:44:12.243Z,75.16
2022-08-26T00:45:12.235Z,75.16
2022-08-26T00:46:12.249Z,75.05
2022-08-26T00:47:12.206Z,74.85
2022-08-26T00:48:12.207Z,74.76
2022-08-26T00:49:12.494Z,74.66
2022-08-26T00:50:12.197Z,74.66
2022-08-26T00:51:12.169Z,74.85
2022-08-26T00:52:13.074Z,74.96
2022-08-26T00:53:12.147Z,75.26
2022-08-26T00:54:12.135Z,75.26
2022-08-26T00:55:12.158Z,75.56
2022-08-26T00:56:13.367Z,75.56
2022-08-26T00:57:15.910Z,75.56
2022-08-26T00:58:12.112Z,75.65
2022-08-26T00:59:12.093Z,75.76
2022-08-26T01:00:12.090Z,75.65
2022-08-26T01:01:12.111Z,75.85
2022-08-26T01:02:20.735Z,75.89
2022-08-26T01:03:13.053Z,75.79
2022-08-26T01:04:12.046Z,75.89
2022-08-26T01:05:12.036Z,75.79
2022-08-26T01:06:13.074Z,75.99
2022-08-26T01:07:12.016Z,75.89
2022-08-26T01:08:12.003Z,75.89
2022-08-26T01:09:12.000Z,76.19
2022-08-26T01:10:11.989Z,76.39
2022-08-26T01:11:11.978Z,76.39
2022-08-26T01:12:11.965Z,76.29
2022-08-26T01:13:11.981Z,76.29
2022-08-26T01:14:11.938Z,76.19
2022-08-26T01:15:11.936Z,76.19
2022-08-26T01:16:11.944Z,76.19
2022-08-26T01:17:11.911Z,76.19
2022-08-26T01:18:11.912Z,76.09
2022-08-26T01:19:11.893Z,75.99
2022-08-26T01:20:11.871Z,76.09
2022-08-26T01:21:11.859Z,76.09
2022-08-26T01:22:11.861Z,75.99
2022-08-26T01:23:11.846Z,75.89
2022-08-26T01:24:11.842Z,76.09
2022-08-26T01:25:11.841Z,76.19
2022-08-26T01:26:19.640Z,76.19
2022-08-26T01:27:12.802Z,76.29
2022-08-26T01:28:11.784Z,76.29
2022-08-26T01:29:11.773Z,76.29
2022-08-26T01:30:11.781Z,76.49
2022-08-26T01:31:11.883Z,76.53
2022-08-26T01:32:11.734Z,76.73
2022-08-26T01:33:11.733Z,76.73
2022-08-26T01:34:11.723Z,77.33
2022-08-26T01:35:11.744Z,77.33
2022-08-26T01:36:11.715Z,77.33
2022-08-26T01:37:11.718Z,77.53
2022-08-26T01:38:11.675Z,77.73
2022-08-26T01:39:11.666Z,77.63
2022-08-26T01:40:11.686Z,77.53
2022-08-26T01:41:11.730Z,77.73
2022-08-26T01:42:12.633Z,77.83
2022-08-26T01:43:11.646Z,77.73
2022-08-26T01:44:11.627Z,78.03
2022-08-26T01:45:11.637Z,78.03
2022-08-26T01:46:11.641Z,78.13
2022-08-26T01:47:11.585Z,78.23
2022-08-26T01:48:11.589Z,78.43
2022-08-26T01:49:11.558Z,78.53
2022-08-26T01:50:11.559Z,78.53
2022-08-26T01:51:11.546Z,78.47
2022-08-26T01:52:11.518Z,78.06
2022-08-26T01:53:11.751Z,78.27
2022-08-26T01:54:12.062Z,78.17
2022-08-26T01:55:11.514Z,78.06
2022-08-26T01:56:11.501Z,78.06
2022-08-26T01:57:11.490Z,78.27
2022-08-26T01:58:11.465Z,78.17
2022-08-26T01:59:12.156Z,77.97
2022-08-26T02:00:11.429Z,77.97
2022-08-26T02:01:11.598Z,77.97
2022-08-26T02:02:11.398Z,78.06
2022-08-26T02:03:11.437Z,78.06
2022-08-26T02:04:11.422Z,78.17
2022-08-26T02:05:11.379Z,77.97
2022-08-26T02:06:11.359Z,77.76
2022-08-26T02:07:11.340Z,77.67
2022-08-26T02:08:11.359Z,77.67
2022-08-26T02:09:11.321Z,78.06
2022-08-26T02:10:11.351Z,78.27
2022-08-26T02:11:11.311Z,78.27
2022-08-26T02:12:11.304Z,78.17
2022-08-26T02:13:11.302Z,78.56
2022-08-26T02:14:11.283Z,78.56
2022-08-26T02:15:11.294Z,78.67
2022-08-26T02:16:11.295Z,78.67
2022-08-26T02:17:11.243Z,78.67
2022-08-26T02:18:14.002Z,78.67
2022-08-26T02:19:11.663Z,78.77
2022-08-26T02:20:14.809Z,78.97
2022-08-26T02:21:11.224Z,79.10
2022-08-26T02:22:11.216Z,79.30
2022-08-26T02:23:11.175Z,79.30
2022-08-26T02:24:11.175Z,79.60
2022-08-26T02:25:11.154Z,79.60
2022-08-26T02:26:11.156Z,79.60
2022-08-26T02:27:11.144Z,79.60
2022-08-26T02:28:11.137Z,79.50
2022-08-26T02:29:11.126Z,79.60
2022-08-26T02:30:11.106Z,79.50
2022-08-26T02:31:11.152Z,79.30
2022-08-26T02:32:11.108Z,79.41
2022-08-26T02:33:11.098Z,79.60
2022-08-26T02:34:11.058Z,79.50
2022-08-26T02:35:11.057Z,79.30
2022-08-26T02:36:13.405Z,79.50
2022-08-26T02:37:11.046Z,79.71
2022-08-26T02:38:11.237Z,79.80
2022-08-26T02:39:11.015Z,79.91
2022-08-26T02:40:11.034Z,80.21
2022-08-26T02:41:11.011Z,80.30
2022-08-26T02:42:10.977Z,80.41
2022-08-26T02:43:10.971Z,80.61
2022-08-26T02:44:10.971Z,80.71
2022-08-26T02:45:10.931Z,80.51
2022-08-26T02:46:11.006Z,80.51
2022-08-26T02:47:10.955Z,80.51
2022-08-26T02:48:10.942Z,81.01
2022-08-26T02:49:10.902Z,81.11
2022-08-26T02:50:10.904Z,81.21
2022-08-26T02:51:10.883Z,81.21
2022-08-26T02:52:10.864Z,81.11
2022-08-26T02:53:10.864Z,81.11
2022-08-26T02:54:10.864Z,81.11
2022-08-26T02:55:10.864Z,81.15
2022-08-26T02:56:10.846Z,81.35
2022-08-26T02:57:10.815Z,81.35
2022-08-26T02:58:10.816Z,81.35
2022-08-26T02:59:10.792Z,81.35
2022-08-26T03:00:10.796Z,81.15
2022-08-26T03:01:10.953Z,81.55
2022-08-26T03:02:10.911Z,81.55
2022-08-26T03:03:10.747Z,81.45
2022-08-26T03:04:10.745Z,81.85
2022-08-26T03:05:10.736Z,81.85
2022-08-26T03:06:10.758Z,81.65
2022-08-26T03:07:10.710Z,81.74
2022-08-26T03:08:10.708Z,81.74
2022-08-26T03:09:10.708Z,81.85
2022-08-26T03:10:11.698Z,81.95
2022-08-26T03:11:10.678Z,81.95
2022-08-26T03:12:10.698Z,81.95
2022-08-26T03:13:10.640Z,81.85
2022-08-26T03:14:10.630Z,81.74
2022-08-26T03:15:17.789Z,81.74
2022-08-26T03:16:11.661Z,81.74
2022-08-26T03:17:10.651Z,81.74
2022-08-26T03:18:10.595Z,81.74
2022-08-26T03:19:10.591Z,81.85
2022-08-26T03:20:10.593Z,81.95
2022-08-26T03:21:10.603Z,81.95
2022-08-26T03:22:10.552Z,82.05
2022-08-26T03:23:10.678Z,82.35
2022-08-26T03:24:10.542Z,82.75
2022-08-26T03:25:10.550Z,82.95
2022-08-26T03:26:10.959Z,82.18
2022-08-26T03:27:10.549Z,81.79
2022-08-26T03:28:10.503Z,82.75
2022-08-26T03:29:10.484Z,82.18
2022-08-26T03:30:11.860Z,82.89
2022-08-26T03:31:10.519Z,83.19
2022-08-26T03:32:10.645Z,83.19
2022-08-26T03:33:10.447Z,83.29
2022-08-26T03:34:11.210Z,83.29
2022-08-26T03:35:10.415Z,83.09
2022-08-26T03:36:10.407Z,83.29
2022-08-26T03:37:10.405Z,83.39
2022-08-26T03:38:10.437Z,83.39
2022-08-26T03:39:10.495Z,83.49
2022-08-26T03:40:10.556Z,83.49
2022-08-26T03:41:10.398Z,83.59
2022-08-26T03:42:10.804Z,83.69
2022-08-26T03:43:10.495Z,83.69
2022-08-26T03:44:10.349Z,83.69
2022-08-26T03:45:10.308Z,83.79
2022-08-26T03:46:11.549Z,83.79
2022-08-26T03:47:10.383Z,83.79
2022-08-26T03:48:11.927Z,83.99
2022-08-26T03:49:10.329Z,83.89
2022-08-26T03:50:10.979Z,83.89
2022-08-26T03:51:10.320Z,83.89
2022-08-26T03:52:11.862Z,83.89
2022-08-26T03:53:13.168Z,83.99
2022-08-26T03:54:10.899Z,83.69
2022-08-26T03:55:11.161Z,83.79
2022-08-26T03:56:10.345Z,83.69
2022-08-26T03:57:10.202Z,83.79
2022-08-26T03:58:10.232Z,83.79
2022-08-26T03:59:10.223Z,83.89
2022-08-26T04:00:10.211Z,83.99
2022-08-26T04:01:10.153Z,83.89
2022-08-26T04:02:11.635Z,83.99
2022-08-26T04:03:10.512Z,84.09
2022-08-26T04:04:10.121Z,84.19
2022-08-26T04:05:11.121Z,84.09
2022-08-26T04:06:10.136Z,83.89
2022-08-26T04:07:10.100Z,84.09
2022-08-26T04:08:10.119Z,84.29
2022-08-26T04:09:10.077Z,84.53
2022-08-26T04:10:10.120Z,84.53
2022-08-26T04:11:10.076Z,84.53
2022-08-26T04:12:10.347Z,84.63
2022-08-26T04:13:10.374Z,84.63
2022-08-26T04:14:10.051Z,84.63
2022-08-26T04:15:09.998Z,84.53
2022-08-26T04:16:10.385Z,84.63
2022-08-26T04:17:10.009Z,84.93
2022-08-26T04:18:10.002Z,84.83
2022-08-26T04:19:10.008Z,84.74
2022-08-26T04:20:09.945Z,84.74
2022-08-26T04:21:09.938Z,84.83
2022-08-26T04:22:09.954Z,84.83
2022-08-26T04:23:09.940Z,84.63
2022-08-26T04:24:11.817Z,84.83
2022-08-26T04:25:09.923Z,85.03
2022-08-26T04:26:09.896Z,85.03
2022-08-26T04:27:09.972Z,85.24
2022-08-26T04:28:09.916Z,85.53
2022-08-26T04:29:09.871Z,85.38
2022-08-26T04:30:09.893Z,85.38
2022-08-26T04:31:09.958Z,85.38
2022-08-26T04:32:09.829Z,85.38
2022-08-26T04:33:13.142Z,85.38
2022-08-26T04:34:10.897Z,85.17
2022-08-26T04:35:09.824Z,85.17
2022-08-26T04:36:09.813Z,85.38
2022-08-26T04:37:09.857Z,85.38
2022-08-26T04:38:09.786Z,85.38
2022-08-26T04:39:09.751Z,85.08
2022-08-26T04:40:09.833Z,85.27
2022-08-26T04:41:15.050Z,85.27
2022-08-26T04:42:10.834Z,85.58
2022-08-26T04:43:09.778Z,85.38
2022-08-26T04:44:09.703Z,85.27
2022-08-26T04:45:09.987Z,85.17
2022-08-26T04:46:09.732Z,85.17
2022-08-26T04:47:09.755Z,85.08
2022-08-26T04:48:11.081Z,85.08
2022-08-26T04:49:11.615Z,84.93
2022-08-26T04:50:09.666Z,85.03
2022-08-26T04:51:09.960Z,85.03
2022-08-26T04:52:09.637Z,84.83
2022-08-26T04:53:09.730Z,84.83
2022-08-26T04:54:09.595Z,84.83
2022-08-26T04:55:09.588Z,84.53
2022-08-26T04:56:09.598Z,84.53
2022-08-26T04:57:09.573Z,84.63
2022-08-26T04:58:10.160Z,84.74
2022-08-26T04:59:16.592Z,84.53
2022-08-26T05:00:11.359Z,84.63
2022-08-26T05:01:09.555Z,84.74
2022-08-26T05:02:09.583Z,84.63
2022-08-26T05:03:10.503Z,84.63
2022-08-26T05:04:09.709Z,84.74
2022-08-26T05:05:09.481Z,84.74
2022-08-26T05:06:09.511Z,84.74
2022-08-26T05:07:09.522Z,84.83
2022-08-26T05:08:09.541Z,84.74
2022-08-26T05:09:09.457Z,84.74
2022-08-26T05:10:09.468Z,84.83
2022-08-26T05:11:09.485Z,84.83
2022-08-26T05:12:09.473Z,84.83
2022-08-26T05:13:11.083Z,84.74
2022-08-26T05:14:09.414Z,84.63
2022-08-26T05:15:09.445Z,84.74
2022-08-26T05:16:09.403Z,84.63
2022-08-26T05:17:09.361Z,84.63
2022-08-26T05:18:10.353Z,84.63
2022-08-26T05:19:09.345Z,84.83
2022-08-26T05:20:09.314Z,84.74
2022-08-26T05:21:09.326Z,84.74
2022-08-26T05:22:09.366Z,84.63
2022-08-26T05:23:09.451Z,84.53
2022-08-26T05:24:09.285Z,84.53
2022-08-26T05:25:09.336Z,84.33
2022-08-26T05:26:09.267Z,84.03
2022-08-26T05:27:11.658Z,84.33
2022-08-26T05:28:09.298Z,84.33
2022-08-26T05:29:09.238Z,84.33
2022-08-26T05:30:09.228Z,84.33
2022-08-26T05:31:09.260Z,84.33
2022-08-26T05:32:09.240Z,84.33
2022-08-26T05:33:09.507Z,84.03
2022-08-26T05:34:09.188Z,84.03
2022-08-26T05:35:09.172Z,83.49
2022-08-26T05:36:09.291Z,83.29
2022-08-26T05:37:09.200Z,83.19
2022-08-26T05:38:12.482Z,82.69
2022-08-26T05:39:10.390Z,82.59
2022-08-26T05:40:09.149Z,82.29
2022-08-26T05:41:09.130Z,82.24
2022-08-26T05:42:09.120Z,81.95
2022-08-26T05:43:09.270Z,81.85
2022-08-26T05:44:09.087Z,81.74
2022-08-26T05:45:09.134Z,81.65
2022-08-26T05:46:09.304Z,81.65
2022-08-26T05:47:09.048Z,81.45
2022-08-26T05:48:09.033Z,81.35
2022-08-26T05:49:12.487Z,81.24
2022-08-26T05:50:09.042Z,81.24
2022-08-26T05:51:09.012Z,81.24
2022-08-26T05:52:08.995Z,81.24
2022-08-26T05:53:09.129Z,81.15
2022-08-26T05:54:10.437Z,81.15
2022-08-26T05:55:08.973Z,81.15
2022-08-26T05:56:08.990Z,81.15
2022-08-26T05:57:09.035Z,81.15
2022-08-26T05:58:08.941Z,81.04
2022-08-26T05:59:14.255Z,80.94
2022-08-26T06:00:09.957Z,80.94
2022-08-26T06:01:08.890Z,80.94
2022-08-26T06:02:08.901Z,80.65
2022-08-26T06:03:09.132Z,80.65
2022-08-26T06:04:08.885Z,80.65
2022-08-26T06:05:08.866Z,80.65
2022-08-26T06:06:08.848Z,80.65
2022-08-26T06:07:09.900Z,80.65
2022-08-26T06:08:08.938Z,80.65
2022-08-26T06:09:10.945Z,80.44
2022-08-26T06:10:31.205Z,80.44
2022-08-26T06:11:18.243Z,80.44
2022-08-26T06:12:09.829Z,80.44
2022-08-26T06:13:11.914Z,80.44
2022-08-26T06:14:08.815Z,80.54
2022-08-26T06:15:08.799Z,80.54
2022-08-26T06:16:08.783Z,80.44
2022-08-26T06:17:09.661Z,80.44
2022-08-26T06:18:08.781Z,80.21
2022-08-26T06:19:11.009Z,80.21
2022-08-26T06:20:08.692Z,80.00
2022-08-26T06:21:08.683Z,80.00
2022-08-26T06:22:08.701Z,79.91
2022-08-26T06:23:08.817Z,79.91
2022-08-26T06:24:08.677Z,79.91
2022-08-26T06:25:08.670Z,79.80
2022-08-26T06:26:08.621Z,79.80
2022-08-26T06:27:08.614Z,79.80
2022-08-26T06:28:08.634Z,79.80
2022-08-26T06:29:08.617Z,79.60
2022-08-26T06:30:08.612Z,79.71
2022-08-26T06:31:08.619Z,79.91
2022-08-26T06:32:08.777Z,80.00
2022-08-26T06:33:08.759Z,79.80
2022-08-26T06:34:10.710Z,79.80
2022-08-26T06:35:12.255Z,79.91
2022-08-26T06:36:08.518Z,79.80
2022-08-26T06:37:08.851Z,79.71
2022-08-26T06:38:08.505Z,79.71
2022-08-26T06:39:08.489Z,79.71
2022-08-26T06:40:08.552Z,79.60
2022-08-26T06:41:08.468Z,79.41
2022-08-26T06:42:08.504Z,79.57
2022-08-26T06:43:08.758Z,79.57
2022-08-26T06:44:08.437Z,79.47
2022-08-26T06:45:08.431Z,79.47
2022-08-26T06:46:08.479Z,79.36
2022-08-26T06:47:08.440Z,79.27
2022-08-26T06:48:09.436Z,79.36
2022-08-26T06:49:08.460Z,79.47
2022-08-26T06:50:08.378Z,79.27
2022-08-26T06:51:08.444Z,79.27
2022-08-26T06:52:08.391Z,79.17
2022-08-26T06:53:08.364Z,79.27
2022-08-26T06:54:08.344Z,79.27
2022-08-26T06:55:08.372Z,79.17
2022-08-26T06:56:08.312Z,79.17
2022-08-26T06:57:08.322Z,79.06
2022-08-26T06:58:08.341Z,79.27
2022-08-26T06:59:08.273Z,79.27
2022-08-26T07:00:08.283Z,79.17
2022-08-26T07:01:11.515Z,79.27
2022-08-26T07:02:08.330Z,79.13
2022-08-26T07:03:08.468Z,79.03
2022-08-26T07:04:10.434Z,78.63
2022-08-26T07:05:08.235Z,78.83
2022-08-26T07:06:08.213Z,78.83
2022-08-26T07:07:08.265Z,78.83
2022-08-26T07:08:08.255Z,78.83
2022-08-26T07:09:09.710Z,78.73
2022-08-26T07:10:08.163Z,78.43
2022-08-26T07:11:08.145Z,78.13
2022-08-26T07:12:09.088Z,78.33
2022-08-26T07:13:08.229Z,78.49
2022-08-26T07:14:08.148Z,78.29
2022-08-26T07:15:08.187Z,78.19
2022-08-26T07:16:08.121Z,77.89
2022-08-26T07:17:12.168Z,78.09
2022-08-26T07:18:09.078Z,77.99
2022-08-26T07:19:11.043Z,78.09
2022-08-26T07:20:08.075Z,77.89
2022-08-26T07:21:08.049Z,77.89
2022-08-26T07:22:08.588Z,77.39
2022-08-26T07:23:08.192Z,77.79
2022-08-26T07:24:08.005Z,77.56
2022-08-26T07:25:08.330Z,77.56
2022-08-26T07:26:08.020Z,77.25
2022-08-26T07:27:08.757Z,77.15
2022-08-26T07:28:07.960Z,77.25
2022-08-26T07:29:07.971Z,77.36
2022-08-26T07:30:07.930Z,76.56
2022-08-26T07:31:09.526Z,76.65
2022-08-26T07:32:07.975Z,76.45
2022-08-26T07:33:08.034Z,76.32
2022-08-26T07:34:07.905Z,76.32
2022-08-26T07:35:07.933Z,76.42
2022-08-26T07:36:07.893Z,75.92
2022-08-26T07:37:08.896Z,76.12
2022-08-26T07:38:07.845Z,76.02
2022-08-26T07:39:07.844Z,75.72
2022-08-26T07:40:07.876Z,75.72
2022-08-26T07:41:07.845Z,75.62
2022-08-26T07:42:08.271Z,75.12
2022-08-26T07:43:07.983Z,75.22
2022-08-26T07:44:07.848Z,75.38
2022-08-26T07:45:07.818Z,75.48
2022-08-26T07:46:07.757Z,75.28
2022-08-26T07:47:10.140Z,75.28
2022-08-26T07:48:07.748Z,75.28
2022-08-26T07:49:07.781Z,75.18
2022-08-26T07:50:07.746Z,75.18
2022-08-26T07:51:07.699Z,75.09
2022-08-26T07:52:07.687Z,75.09
2022-08-26T07:53:07.854Z,75.09
2022-08-26T07:54:07.669Z,75.09
2022-08-26T07:55:07.678Z,75.18
2022-08-26T07:56:07.700Z,75.18
2022-08-26T07:57:08.341Z,75.28
2022-08-26T07:58:07.641Z,75.18
2022-08-26T07:59:08.649Z,75.28
2022-08-26T08:00:08.941Z,75.18
2022-08-26T08:01:07.757Z,75.09
2022-08-26T08:02:07.610Z,74.95
2022-08-26T08:03:07.838Z,74.85
2022-08-26T08:04:07.564Z,74.75
2022-08-26T08:05:07.629Z,74.85
2022-08-26T08:06:07.534Z,74.55
2022-08-26T08:07:07.599Z,74.45
2022-08-26T08:08:26.694Z,74.35
2022-08-26T08:09:08.503Z,74.35
2022-08-26T08:10:09.886Z,74.45
2022-08-26T08:11:07.545Z,74.35
2022-08-26T08:12:07.477Z,74.21
2022-08-26T08:13:07.730Z,74.02
2022-08-26T08:14:08.453Z,73.72
2022-08-26T08:15:07.502Z,73.82
2022-08-26T08:16:07.483Z,73.11
2022-08-26T08:17:08.778Z,73.32
2022-08-26T08:18:07.455Z,73.52
2022-08-26T08:19:08.446Z,73.32
2022-08-26T08:20:07.427Z,73.02
2022-08-26T08:21:24.093Z,73.11
2022-08-26T08:22:17.302Z,72.78
2022-08-26T08:23:08.370Z,72.78
2022-08-26T08:24:07.347Z,72.78
2022-08-26T08:25:08.173Z,72.68
2022-08-26T08:26:07.380Z,72.68
2022-08-26T08:27:07.400Z,72.78
2022-08-26T08:28:07.303Z,72.68
2022-08-26T08:29:07.289Z,72.68
2022-08-26T08:30:07.300Z,72.45
2022-08-26T08:31:07.398Z,72.45
2022-08-26T08:32:11.535Z,72.45
2022-08-26T08:33:08.292Z,72.35
2022-08-26T08:34:07.291Z,72.25
2022-08-26T08:35:11.582Z,72.15
2022-08-26T08:36:07.225Z,72.05
2022-08-26T08:37:10.066Z,72.05
2022-08-26T08:38:07.413Z,72.05
2022-08-26T08:39:07.203Z,72.02
2022-08-26T08:40:07.269Z,72.02
2022-08-26T08:41:07.263Z,71.72
2022-08-26T08:42:07.154Z,71.72
2022-08-26T08:43:07.302Z,71.62
2022-08-26T08:44:07.144Z,71.62
2022-08-26T08:45:07.153Z,71.32
2022-08-26T08:46:07.266Z,71.09
2022-08-26T08:47:07.194Z,71.09
2022-08-26T08:48:07.143Z,70.59
2022-08-26T08:49:07.104Z,70.68
2022-08-26T08:50:07.206Z,70.39
2022-08-26T08:51:07.088Z,70.15
2022-08-26T08:52:07.057Z,69.66
2022-08-26T08:53:08.927Z,69.56
2022-08-26T08:54:07.089Z,69.16
2022-08-26T08:55:11.147Z,68.23
2022-08-26T08:56:08.012Z,68.23
2022-08-26T08:57:07.005Z,68.04
2022-08-26T08:58:08.115Z,67.83
2022-08-26T08:59:06.999Z,67.80
2022-08-26T09:00:06.980Z,67.70
2022-08-26T09:01:07.017Z,66.91
2022-08-26T09:02:07.085Z,66.97
2022-08-26T09:03:06.943Z,66.88
2022-08-26T09:04:06.941Z,66.67
2022-08-26T09:05:06.981Z,66.55
2022-08-26T09:06:06.974Z,66.55
2022-08-26T09:07:06.892Z,65.52
2022-08-26T09:08:06.891Z,65.72
2022-08-26T09:09:06.870Z,65.32
2022-08-26T09:10:06.897Z,65.29
2022-08-26T09:11:06.900Z,65.09
2022-08-26T09:12:06.845Z,64.89
2022-08-26T09:13:06.834Z,64.76
2022-08-26T09:14:06.832Z,64.56
2022-08-26T09:15:07.451Z,64.34
2022-08-26T09:16:06.857Z,63.45
2022-08-26T09:17:06.903Z,63.54
2022-08-26T09:18:06.817Z,63.12
2022-08-26T09:19:06.765Z,62.02
2022-08-26T09:20:06.790Z,61.73
2022-08-26T09:21:06.806Z,61.30
2022-08-26T09:22:09.607Z,61.40
2022-08-26T09:23:06.932Z,61.21
2022-08-26T09:24:06.730Z,61.18
2022-08-26T09:25:06.731Z,60.97
2022-08-26T09:26:06.729Z,60.25
2022-08-26T09:27:06.689Z,60.25
2022-08-26T09:28:06.692Z,59.73
2022-08-26T09:29:06.691Z,59.63
2022-08-26T09:30:06.669Z,59.63
2022-08-26T09:31:10.668Z,59.01
2022-08-26T09:32:06.670Z,58.32
2022-08-26T09:33:10.334Z,58.42
2022-08-26T09:34:06.620Z,58.09
2022-08-26T09:35:06.610Z,58.19
2022-08-26T09:36:06.642Z,57.97
2022-08-26T09:37:06.621Z,57.07
2022-08-26T09:38:09.105Z,57.07
2022-08-26T09:39:07.561Z,56.85
2022-08-26T09:40:06.666Z,57.15
2022-08-26T09:41:06.593Z,56.65
2022-08-26T09:42:06.523Z,56.56
2022-08-26T09:43:06.505Z,56.56
2022-08-26T09:44:06.534Z,56.43
2022-08-26T09:45:06.486Z,56.33
2022-08-26T09:46:06.582Z,56.63
2022-08-26T09:47:06.509Z,56.73
2022-08-26T09:48:07.395Z,56.50
2022-08-26T09:49:06.605Z,56.10
2022-08-26T09:50:09.936Z,56.30
2022-08-26T09:51:07.793Z,55.79
2022-08-26T09:52:06.447Z,55.39
2022-08-26T09:53:09.965Z,55.29
2022-08-26T09:54:08.244Z,55.58
2022-08-26T09:55:06.410Z,55.36
2022-08-26T09:56:06.390Z,55.36
2022-08-26T09:57:06.428Z,54.77
2022-08-26T09:58:07.959Z,54.97
2022-08-26T09:59:06.470Z,54.55
2022-08-26T10:00:06.387Z,54.35
2022-08-26T10:01:06.393Z,54.28
2022-08-26T10:02:06.363Z,54.18
2022-08-26T10:03:07.337Z,54.16
2022-08-26T10:04:06.323Z,54.05
2022-08-26T10:05:09.631Z,54.35
2022-08-26T10:06:06.295Z,54.25
2022-08-26T10:07:06.272Z,54.16
2022-08-26T10:08:06.256Z,54.25
2022-08-26T10:09:09.829Z,54.35
2022-08-26T10:10:06.232Z,54.45
2022-08-26T10:11:06.214Z,54.45
2022-08-26T10:12:06.224Z,54.55
2022-08-26T10:13:06.251Z,53.86
2022-08-26T10:14:06.248Z,53.96
2022-08-26T10:15:06.175Z,54.25
2022-08-26T10:16:06.185Z,54.05
2022-08-26T10:17:07.077Z,53.86
2022-08-26T10:18:06.227Z,54.16
2022-08-26T10:19:06.147Z,53.86
2022-08-26T10:20:06.148Z,53.96
2022-08-26T10:21:07.332Z,53.56
2022-08-26T10:22:06.108Z,53.56
2022-08-26T10:23:06.200Z,53.56
2022-08-26T10:24:06.137Z,53.56
2022-08-26T10:25:06.081Z,53.44
2022-08-26T10:26:06.080Z,53.93
2022-08-26T10:27:06.055Z,53.74
2022-08-26T10:28:06.232Z,53.83
2022-08-26T10:29:06.118Z,53.24
2022-08-26T10:30:06.096Z,53.54
2022-08-26T10:31:06.031Z,53.14
2022-08-26T10:32:06.140Z,53.12
2022-08-26T10:33:06.091Z,52.92
2022-08-26T10:34:06.035Z,53.24
2022-08-26T10:35:06.003Z,53.34
2022-08-26T10:36:05.993Z,53.14
2022-08-26T10:37:14.209Z,52.92
2022-08-26T10:38:07.052Z,53.02
2022-08-26T10:39:05.936Z,52.82
2022-08-26T10:40:05.986Z,52.53
2022-08-26T10:41:09.692Z,52.99
2022-08-26T10:42:05.986Z,52.60
2022-08-26T10:43:11.064Z,52.60
2022-08-26T10:44:06.887Z,52.21
2022-08-26T10:45:05.866Z,51.81
2022-08-26T10:46:06.949Z,51.69
2022-08-26T10:47:05.847Z,51.91
2022-08-26T10:48:05.878Z,51.69
2022-08-26T10:49:06.538Z,51.89
2022-08-26T10:50:05.829Z,52.18
2022-08-26T10:51:05.879Z,51.50
2022-08-26T10:52:12.197Z,51.59
2022-08-26T10:53:07.622Z,51.67
2022-08-26T10:54:05.801Z,51.37
2022-08-26T10:55:05.779Z,51.47
2022-08-26T10:56:06.041Z,51.47
2022-08-26T10:57:06.731Z,51.47
2022-08-26T10:58:07.282Z,51.30
2022-08-26T10:59:05.763Z,51.40
2022-08-26T11:00:05.723Z,51.17
2022-08-26T11:01:10.223Z,51.37
2022-08-26T11:02:06.803Z,51.17
2022-08-26T11:03:05.734Z,51.07
2022-08-26T11:04:05.784Z,51.07
2022-08-26T11:05:05.704Z,50.78
2022-08-26T11:06:05.655Z,51.17
2022-08-26T11:07:05.636Z,50.19
2022-08-26T11:08:06.073Z,50.29
2022-08-26T11:09:05.641Z,50.29
2022-08-26T11:10:05.697Z,50.29
2022-08-26T11:11:05.654Z,49.99
2022-08-26T11:12:10.029Z,50.19
2022-08-26T11:13:05.642Z,50.29
2022-08-26T11:14:05.594Z,50.29
2022-08-26T11:15:05.571Z,50.19
2022-08-26T11:16:05.627Z,49.70
2022-08-26T11:17:05.540Z,49.87
2022-08-26T11:18:05.529Z,49.68
2022-08-26T11:19:05.551Z,49.68
2022-08-26T11:20:09.178Z,49.58
2022-08-26T11:21:06.513Z,49.46
2022-08-26T11:22:05.591Z,49.55
2022-08-26T11:23:05.514Z,49.85
2022-08-26T11:24:05.564Z,50.42
2022-08-26T11:25:05.552Z,50.42
2022-08-26T11:26:05.464Z,50.49
2022-08-26T11:27:05.435Z,48.82
2022-08-26T11:28:05.425Z,48.21
2022-08-26T11:29:12.139Z,48.99
2022-08-26T11:30:06.415Z,49.19
2022-08-26T11:31:05.400Z,48.97
2022-08-26T11:32:05.426Z,48.87
2022-08-26T11:33:05.382Z,48.46
2022-08-26T11:34:05.424Z,48.16
2022-08-26T11:35:05.336Z,48.04
2022-08-26T11:36:12.099Z,47.55
2022-08-26T11:37:06.325Z,47.33
2022-08-26T11:38:05.457Z,46.65
2022-08-26T11:39:05.337Z,46.06
2022-08-26T11:40:05.406Z,46.04
2022-08-26T11:41:05.308Z,45.65
2022-08-26T11:42:05.269Z,46.23
2022-08-26T11:43:05.271Z,46.04
2022-08-26T11:44:05.350Z,45.65
2022-08-26T11:45:05.651Z,45.72
2022-08-26T11:46:05.315Z,45.72
2022-08-26T11:47:05.340Z,45.92
2022-08-26T11:48:06.268Z,46.21
2022-08-26T11:49:05.222Z,45.82
2022-08-26T11:50:05.203Z,45.33
2022-08-26T11:51:05.223Z,45.23
2022-08-26T11:52:05.173Z,45.70
2022-08-26T11:53:06.136Z,45.90
2022-08-26T11:54:05.214Z,46.09
2022-08-26T11:55:05.147Z,46.09
2022-08-26T11:56:05.154Z,45.90
2022-08-26T11:57:11.782Z,45.70
2022-08-26T11:58:06.151Z,46.00
2022-08-26T11:59:05.104Z,45.41
2022-08-26T12:00:06.451Z,45.68
2022-08-26T12:01:05.107Z,45.09
2022-08-26T12:02:05.087Z,45.46
2022-08-26T12:03:05.130Z,44.68
2022-08-26T12:04:05.162Z,44.46
2022-08-26T12:05:05.102Z,44.46
2022-08-26T12:06:05.052Z,44.24
2022-08-26T12:07:05.033Z,44.15
2022-08-26T12:08:05.040Z,43.84
2022-08-26T12:09:05.010Z,43.05
2022-08-26T12:10:05.044Z,43.44
2022-08-26T12:11:04.986Z,43.84
2022-08-26T12:12:04.971Z,43.54
2022-08-26T12:13:05.962Z,43.52
2022-08-26T12:14:04.976Z,42.63
2022-08-26T12:15:04.943Z,42.41
2022-08-26T12:16:04.997Z,42.02
2022-08-26T12:17:04.974Z,41.51
2022-08-26T12:18:05.054Z,41.38
2022-08-26T12:19:04.885Z,40.77
2022-08-26T12:20:04.884Z,40.05
2022-08-26T12:21:04.915Z,39.04
2022-08-26T12:22:04.884Z,38.21
2022-08-26T12:23:04.853Z,37.10
2022-08-26T12:24:04.859Z,35.77
2022-08-26T12:25:04.857Z,34.45
2022-08-26T12:26:04.939Z,33.15
2022-08-26T12:27:04.798Z,32.33
2022-08-26T12:28:04.859Z,31.61
2022-08-26T12:29:10.774Z,30.49
2022-08-26T12:30:06.748Z,29.99
2022-08-26T12:31:04.802Z,29.16
2022-08-26T12:32:04.877Z,28.36
2022-08-26T12:33:13.333Z,27.57
2022-08-26T12:34:05.748Z,26.97
2022-08-26T12:36:04.743Z,26.55
2022-08-26T12:37:04.739Z,26.16
2022-08-26T12:38:04.743Z,26.26
2022-08-26T12:39:04.769Z,25.86
2022-08-26T12:40:04.793Z,25.77
2022-08-26T12:41:04.693Z,26.17
2022-08-26T12:42:04.761Z,26.98
2022-08-26T12:43:04.717Z,27.19
2022-08-26T12:44:04.745Z,27.60
2022-08-26T12:45:04.715Z,28.09
2022-08-26T12:46:06.667Z,28.10
2022-08-26T12:47:04.699Z,27.99
2022-08-26T12:48:04.627Z,27.27
2022-08-26T12:49:04.657Z,26.76
2022-08-26T12:50:04.713Z,26.07
2022-08-26T12:51:04.703Z,25.67
2022-08-26T12:52:04.602Z,25.39
2022-08-26T12:53:04.608Z,25.28